createdAt,value
2022-11-28T00:01:36.716Z,7.90
2022-11-28T00:04:04.294Z,7.90
2022-11-28T00:06:31.828Z,7.90
2022-11-28T00:08:59.371Z,7.90
2022-11-28T00:11:26.967Z,7.90
2022-11-28T00:13:55.253Z,7.90
2022-11-28T00:16:23.600Z,7.90
2022-11-28T00:18:51.118Z,7.90
2022-11-28T00:21:18.652Z,7.90
2022-11-28T00:23:46.190Z,8.00
2022-11-28T00:26:14.558Z,7.90
2022-11-28T00:28:42.034Z,7.90
2022-11-28T00:31:12.574Z,7.90
2022-11-28T00:33:40.116Z,7.90
2022-11-28T00:36:08.461Z,7.90
2022-11-28T00:38:35.992Z,7.90
2022-11-28T00:41:03.588Z,7.80
2022-11-28T00:43:31.118Z,7.80
2022-11-28T00:45:58.737Z,7.80
2022-11-28T00:48:26.221Z,7.80
2022-11-28T00:50:53.747Z,8.00
2022-11-28T00:53:22.057Z,8.00
2022-11-28T00:55:49.613Z,8.00
2022-11-28T00:58:17.138Z,7.90
2022-11-28T01:00:45.487Z,7.90
2022-11-28T01:03:13.015Z,7.90
2022-11-28T01:05:40.551Z,7.80
2022-11-28T01:08:08.086Z,7.90
2022-11-28T01:10:36.427Z,7.80
2022-11-28T01:13:03.971Z,7.80
2022-11-28T01:15:31.505Z,7.80
2022-11-28T01:17:59.068Z,8.00
2022-11-28T01:20:26.594Z,8.00
2022-11-28T01:22:54.880Z,7.90
2022-11-28T01:25:23.190Z,7.90
2022-11-28T01:27:50.723Z,7.80
2022-11-28T01:30:19.007Z,7.80
2022-11-28T01:32:46.572Z,7.80
2022-11-28T01:35:14.109Z,7.80
2022-11-28T01:37:41.643Z,7.80
2022-11-28T01:40:09.207Z,7.70
2022-11-28T01:42:36.770Z,7.70
2022-11-28T01:45:16.082Z,7.90
2022-11-28T01:47:43.616Z,7.90
2022-11-28T01:50:11.161Z,7.80
2022-11-28T01:52:38.766Z,8.00
2022-11-28T01:55:06.338Z,8.00
2022-11-28T01:57:33.862Z,7.90
2022-11-28T02:00:07.483Z,7.90
2022-11-28T02:02:37.855Z,7.80
2022-11-28T02:05:05.389Z,7.80
2022-11-28T02:07:32.988Z,7.70
2022-11-28T02:10:01.254Z,7.70
2022-11-28T02:12:50.679Z,7.70
2022-11-28T02:15:18.213Z,7.60
2022-11-28T02:18:07.047Z,7.60
2022-11-28T02:20:37.573Z,7.80
2022-11-28T02:23:23.520Z,7.80
2022-11-28T02:25:54.000Z,7.70
2022-11-28T02:28:48.600Z,7.70
2022-11-28T02:31:25.094Z,7.90
2022-11-28T02:33:56.440Z,7.80
2022-11-28T02:36:33.123Z,7.80
2022-11-28T02:39:03.102Z,7.80
2022-11-28T02:41:48.553Z,7.70
2022-11-28T02:44:17.880Z,7.70
2022-11-28T02:47:00.238Z,7.60
2022-11-28T02:49:49.786Z,7.60
2022-11-28T02:52:17.318Z,7.60
2022-11-28T02:54:45.356Z,7.60
2022-11-28T02:57:13.688Z,7.60
2022-11-28T02:59:43.872Z,7.60
2022-11-28T03:02:20.634Z,7.50
2022-11-28T03:04:48.099Z,7.60
2022-11-28T03:07:21.133Z,7.60
2022-11-28T03:10:09.486Z,7.50
2022-11-28T03:12:46.070Z,7.50
2022-11-28T03:15:13.605Z,7.50
2022-11-28T03:18:05.677Z,7.50
2022-11-28T03:21:01.410Z,8.00
2022-11-28T03:23:32.894Z,8.00
2022-11-28T03:26:06.120Z,8.00
2022-11-28T03:28:40.601Z,7.90
2022-11-28T03:31:21.790Z,7.80
2022-11-28T03:33:52.442Z,7.70
2022-11-28T03:36:22.941Z,7.70
2022-11-28T03:38:50.495Z,7.70
2022-11-28T03:41:18.020Z,7.90
2022-11-28T03:43:52.313Z,7.80
2022-11-28T03:46:19.936Z,7.80
2022-11-28T03:48:47.400Z,7.70
2022-11-28T03:51:39.352Z,7.70
2022-11-28T03:54:15.611Z,7.70
2022-11-28T03:56:45.823Z,7.60
2022-11-28T03:59:37.303Z,7.60
2022-11-28T04:02:10.402Z,7.60
2022-11-28T04:04:44.040Z,7.60
2022-11-28T04:07:32.618Z,7.60
2022-11-28T04:10:09.091Z,7.60
2022-11-28T04:12:57.618Z,7.60
2022-11-28T04:15:39.952Z,7.60
2022-11-28T04:18:44.940Z,7.80
2022-11-28T04:21:33.549Z,7.80
2022-11-28T04:24:04.441Z,7.70
2022-11-28T04:26:34.938Z,7.70
2022-11-28T04:29:08.114Z,7.70
2022-11-28T04:31:35.701Z,7.70
2022-11-28T04:34:03.973Z,7.60
2022-11-28T04:36:31.496Z,7.60
2022-11-28T04:38:59.041Z,7.80
2022-11-28T04:41:38.284Z,7.80
2022-11-28T04:44:17.752Z,7.80
2022-11-28T04:46:45.276Z,7.80
2022-11-28T04:49:12.811Z,7.70
2022-11-28T04:51:52.053Z,7.60
2022-11-28T04:54:19.581Z,7.60
2022-11-28T04:57:02.070Z,7.60
2022-11-28T04:59:29.603Z,7.70
2022-11-28T05:01:57.174Z,7.70
2022-11-28T05:04:24.714Z,7.70
2022-11-28T05:06:52.251Z,7.60
2022-11-28T05:09:19.771Z,7.70
2022-11-28T05:11:47.317Z,7.60
2022-11-28T05:14:14.841Z,7.80
2022-11-28T05:16:42.419Z,7.80
2022-11-28T05:19:09.932Z,7.80
2022-11-28T05:21:37.467Z,7.70
2022-11-28T05:24:05.001Z,7.70
2022-11-28T05:26:33.323Z,7.70
2022-11-28T05:29:00.836Z,7.60
2022-11-28T05:31:29.178Z,7.60
2022-11-28T05:33:56.715Z,7.60
2022-11-28T05:36:24.249Z,7.60
2022-11-28T05:38:51.784Z,7.60
2022-11-28T05:41:29.361Z,7.50
2022-11-28T05:43:56.908Z,7.50
2022-11-28T05:46:24.452Z,7.50
2022-11-28T05:48:52.292Z,7.50
2022-11-28T05:51:19.817Z,7.50
2022-11-28T05:53:48.119Z,7.60
2022-11-28T05:56:15.672Z,7.60
2022-11-28T05:58:43.210Z,7.60
2022-11-28T06:01:11.505Z,7.60
2022-11-28T06:03:39.390Z,7.60
2022-11-28T06:06:06.993Z,7.60
2022-11-28T06:08:34.526Z,7.60
2022-11-28T06:11:02.103Z,7.60
2022-11-28T06:13:29.638Z,7.60
2022-11-28T06:15:57.191Z,7.60
2022-11-28T06:18:24.747Z,7.60
2022-11-28T06:20:52.300Z,7.60
2022-11-28T06:23:19.835Z,7.60
2022-11-28T06:25:48.167Z,7.60
2022-11-28T06:28:15.691Z,7.50
2022-11-28T06:30:43.229Z,7.50
2022-11-28T06:33:11.561Z,7.60
2022-11-28T06:35:39.104Z,7.60
2022-11-28T06:38:11.422Z,7.60
2022-11-28T06:40:34.203Z,7.80
2022-11-28T06:43:01.739Z,7.70
2022-11-28T06:45:30.077Z,7.70
2022-11-28T06:47:57.615Z,7.70
2022-11-28T06:50:25.151Z,7.60
2022-11-28T06:52:52.793Z,7.60
2022-11-28T06:55:21.144Z,7.60
2022-11-28T06:57:48.694Z,7.50
2022-11-28T07:00:16.324Z,7.60
2022-11-28T07:02:43.947Z,7.70
2022-11-28T07:05:11.422Z,7.80
2022-11-28T07:07:53.205Z,7.70
2022-11-28T07:10:07.515Z,7.70
2022-11-28T07:12:35.049Z,7.60
2022-11-28T07:15:02.585Z,7.60
2022-11-28T07:17:30.151Z,7.60
2022-11-28T07:19:57.673Z,7.60
2022-11-28T07:22:25.976Z,7.60
2022-11-28T07:24:53.571Z,7.50
2022-11-28T07:27:21.126Z,7.60
2022-11-28T07:29:48.648Z,7.50
2022-11-28T07:32:16.255Z,7.50
2022-11-28T07:34:47.706Z,7.50
2022-11-28T07:37:11.295Z,7.50
2022-11-28T07:39:38.886Z,7.50
2022-11-28T07:42:06.412Z,7.60
2022-11-28T07:44:33.947Z,7.60
2022-11-28T07:47:01.618Z,7.60
2022-11-28T07:49:29.854Z,7.80
2022-11-28T07:51:57.378Z,7.80
2022-11-28T07:54:25.801Z,7.90
2022-11-28T07:59:20.860Z,7.90
2022-11-28T08:01:48.479Z,7.80
2022-11-28T08:04:16.027Z,7.80
2022-11-28T08:06:43.486Z,8.10
2022-11-28T08:09:11.059Z,8.30
2022-11-28T08:11:38.585Z,8.30
2022-11-28T08:14:06.877Z,8.20
2022-11-28T08:16:34.661Z,8.20
2022-11-28T08:19:02.077Z,8.10
2022-11-28T08:21:30.374Z,8.00
2022-11-28T08:23:58.234Z,8.00
2022-11-28T08:26:29.050Z,8.00
2022-11-28T08:28:54.085Z,8.00
2022-11-28T08:31:24.763Z,8.00
2022-11-28T08:33:52.233Z,8.00
2022-11-28T08:36:20.526Z,8.00
2022-11-28T08:39:03.262Z,8.00
2022-11-28T08:41:15.635Z,8.00
2022-11-28T08:43:43.948Z,8.00
2022-11-28T08:46:11.580Z,8.00
2022-11-28T08:48:39.056Z,8.00
2022-11-28T08:51:06.591Z,8.00
2022-11-28T08:53:34.923Z,8.00
2022-11-28T08:56:02.462Z,8.00
2022-11-28T08:58:30.004Z,8.10
2022-11-28T09:00:57.669Z,8.10
2022-11-28T09:03:25.199Z,8.10
2022-11-28T09:05:52.705Z,8.10
2022-11-28T09:09:59.628Z,8.60
2022-11-28T09:12:27.174Z,8.60
2022-11-28T09:14:54.707Z,8.60
2022-11-28T09:17:22.603Z,8.60
2022-11-28T09:19:50.122Z,8.60
2022-11-28T09:22:17.645Z,8.60
2022-11-28T09:24:45.959Z,8.60
2022-11-28T09:27:13.502Z,8.60
2022-11-28T09:29:41.330Z,8.70
2022-11-28T09:32:08.601Z,8.70
2022-11-28T09:34:36.915Z,8.70
2022-11-28T09:37:05.107Z,8.70
2022-11-28T09:39:43.927Z,8.90
2022-11-28T09:42:02.995Z,8.90
2022-11-28T09:44:48.380Z,8.90
2022-11-28T09:47:18.937Z,8.90
2022-11-28T09:49:47.662Z,8.90
2022-11-28T09:52:30.423Z,8.80
2022-11-28T09:55:19.075Z,8.80
2022-11-28T09:57:49.686Z,8.80
2022-11-28T10:00:20.557Z,8.80
2022-11-28T10:03:00.282Z,9.00
2022-11-28T10:05:46.552Z,9.00
2022-11-28T10:08:26.088Z,9.00
2022-11-28T10:11:02.626Z,9.30
2022-11-28T10:14:07.218Z,9.50
2022-11-28T10:16:14.180Z,9.50
2022-11-28T10:18:59.531Z,9.40
2022-11-28T10:21:36.222Z,9.40
2022-11-28T10:24:06.819Z,9.40
2022-11-28T10:26:37.290Z,9.40
2022-11-28T10:29:16.549Z,9.40
2022-11-28T10:31:44.094Z,9.40
2022-11-28T10:34:17.596Z,9.40
2022-11-28T10:36:48.104Z,9.40
2022-11-28T10:39:15.639Z,9.60
2022-11-28T10:41:45.824Z,9.60
2022-11-28T10:44:22.120Z,9.50
2022-11-28T10:46:58.752Z,9.50
2022-11-28T10:49:44.450Z,9.50
2022-11-28T10:52:26.600Z,9.50
2022-11-28T10:54:54.166Z,9.50
2022-11-28T10:57:27.430Z,9.70
2022-11-28T11:00:06.553Z,9.70
2022-11-28T11:02:36.964Z,10.00
2022-11-28T11:05:05.407Z,9.90
2022-11-28T11:07:32.955Z,9.90
2022-11-28T11:10:06.016Z,9.80
2022-11-28T11:12:33.572Z,9.80
2022-11-28T11:15:01.145Z,9.70
2022-11-28T11:17:34.199Z,9.70
2022-11-28T11:19:56.224Z,9.70
2022-11-28T11:22:24.546Z,9.70
2022-11-28T11:25:13.608Z,9.70
2022-11-28T11:27:47.175Z,9.70
2022-11-28T11:30:17.863Z,9.70
2022-11-28T11:32:50.081Z,9.70
2022-11-28T11:35:25.330Z,9.70
2022-11-28T11:37:52.882Z,9.70
2022-11-28T11:40:20.416Z,9.70
2022-11-28T11:42:57.163Z,9.80
2022-11-28T11:45:24.692Z,9.70
2022-11-28T11:47:52.218Z,9.80
2022-11-28T11:50:20.580Z,10.20
2022-11-28T11:53:04.386Z,10.20
2022-11-28T11:55:31.963Z,10.20
2022-11-28T11:58:04.132Z,10.10
2022-11-28T12:00:36.042Z,10.10
2022-11-28T12:03:03.784Z,10.20
2022-11-28T12:05:46.338Z,10.30
2022-11-28T12:08:01.915Z,10.20
2022-11-28T12:10:29.430Z,10.10
2022-11-28T12:12:57.742Z,10.30
2022-11-28T12:15:34.240Z,10.30
2022-11-28T12:18:07.748Z,10.30
2022-11-28T12:20:38.268Z,10.20
2022-11-28T12:23:17.879Z,10.10
2022-11-28T12:26:04.007Z,10.00
2022-11-28T12:28:34.201Z,10.00
2022-11-28T12:31:07.742Z,10.00
2022-11-28T12:33:38.121Z,10.00
2022-11-28T12:36:11.653Z,10.00
2022-11-28T12:38:47.943Z,9.90
2022-11-28T12:41:37.225Z,9.90
2022-11-28T12:44:13.919Z,9.90
2022-11-28T12:46:56.420Z,9.90
2022-11-28T12:50:01.546Z,9.90
2022-11-28T12:52:35.174Z,9.90
2022-11-28T12:55:08.364Z,9.90
2022-11-28T12:57:53.669Z,9.90
2022-11-28T13:00:21.239Z,9.90
2022-11-28T13:02:51.742Z,9.90
2022-11-28T13:05:39.984Z,9.90
2022-11-28T13:08:16.321Z,9.90
2022-11-28T13:10:55.680Z,9.90
2022-11-28T13:13:35.128Z,9.90
2022-11-28T13:16:26.774Z,9.90
2022-11-28T13:18:51.298Z,9.90
2022-11-28T13:21:31.163Z,9.90
2022-11-28T13:24:06.879Z,10.20
2022-11-28T13:27:05.693Z,10.20
2022-11-28T13:29:51.099Z,10.20
2022-11-28T13:32:24.325Z,10.40
2022-11-28T13:34:51.829Z,10.40
2022-11-28T13:40:08.699Z,10.20
2022-11-28T13:43:07.019Z,10.20
2022-11-28T13:45:32.459Z,10.20
2022-11-28T13:47:58.522Z,10.20
2022-11-28T13:50:25.837Z,10.10
2022-11-28T13:53:08.123Z,10.20
2022-11-28T13:55:50.355Z,10.10
2022-11-28T13:58:22.257Z,10.10
2022-11-28T14:01:03.425Z,10.10
2022-11-28T14:03:31.022Z,10.10
2022-11-28T14:05:58.502Z,10.10
2022-11-28T14:08:37.450Z,10.10
2022-11-28T14:11:07.845Z,10.10
2022-11-28T14:13:38.005Z,10.10
2022-11-28T14:16:05.634Z,10.30
2022-11-28T14:18:58.663Z,10.40
2022-11-28T14:21:21.422Z,10.30
2022-11-28T14:23:48.956Z,10.60
2022-11-28T14:26:29.005Z,10.50
2022-11-28T14:28:56.501Z,10.50
2022-11-28T14:31:32.723Z,10.40
2022-11-28T14:34:02.993Z,10.40
2022-11-28T14:36:33.113Z,10.30
2022-11-28T14:39:06.332Z,10.30
2022-11-28T14:41:33.897Z,10.20
2022-11-28T14:44:25.753Z,10.20
2022-11-28T14:47:06.304Z,10.50
2022-11-28T14:49:34.605Z,10.40
2022-11-28T14:52:30.856Z,10.40
2022-11-28T14:54:35.213Z,10.30
2022-11-28T14:57:02.763Z,10.20
2022-11-28T14:59:32.888Z,10.40
2022-11-28T15:02:12.114Z,10.40
2022-11-28T15:05:00.983Z,10.30
2022-11-28T15:07:50.241Z,10.50
2022-11-28T15:10:35.858Z,10.50
2022-11-28T15:13:12.797Z,10.30
2022-11-28T15:15:40.320Z,10.20
2022-11-28T15:18:07.856Z,10.20
2022-11-28T15:20:39.123Z,10.10
2022-11-28T15:23:06.667Z,10.10
2022-11-28T15:25:35.048Z,10.10
2022-11-28T15:28:15.294Z,10.00
2022-11-28T15:30:46.531Z,10.00
2022-11-28T15:33:14.056Z,9.90
2022-11-28T15:35:41.631Z,9.90
2022-11-28T15:38:09.167Z,9.90
2022-11-28T15:40:36.730Z,9.90
2022-11-28T15:43:08.071Z,10.10
2022-11-28T15:45:31.849Z,10.20
2022-11-28T15:47:59.389Z,10.10
2022-11-28T15:50:27.026Z,10.10
2022-11-28T15:52:54.570Z,10.30
2022-11-28T15:55:22.883Z,10.20
2022-11-28T15:57:50.447Z,10.20
2022-11-28T16:00:18.100Z,10.10
2022-11-28T16:02:45.625Z,10.10
2022-11-28T16:05:16.705Z,10.00
2022-11-28T16:07:44.308Z,10.00
2022-11-28T16:10:24.328Z,9.90
2022-11-28T16:12:51.862Z,9.90
2022-11-28T16:15:19.407Z,9.90
2022-11-28T16:17:47.729Z,9.90
2022-11-28T16:20:18.109Z,9.80
2022-11-28T16:22:45.654Z,9.80
2022-11-28T16:25:23.369Z,9.90
2022-11-28T16:27:50.905Z,9.90
2022-11-28T16:30:37.116Z,9.90
2022-11-28T16:33:04.603Z,9.90
2022-11-28T16:35:34.786Z,9.90
2022-11-28T16:38:06.074Z,9.80
2022-11-28T16:40:33.619Z,9.80
2022-11-28T16:43:01.163Z,9.80
2022-11-28T16:45:29.611Z,9.70
2022-11-28T16:48:08.819Z,9.70
2022-11-28T16:50:37.107Z,10.00
2022-11-28T16:53:04.642Z,10.00
2022-11-28T16:55:32.188Z,10.00
2022-11-28T16:58:14.835Z,10.30
2022-11-28T17:00:48.437Z,10.30
2022-11-28T17:03:40.280Z,10.20
2022-11-28T17:06:13.784Z,10.40
2022-11-28T17:08:41.338Z,10.40
2022-11-28T17:11:08.919Z,10.50
2022-11-28T17:13:37.241Z,10.40
2022-11-28T17:16:04.868Z,10.40
2022-11-28T17:18:32.380Z,10.30
2022-11-28T17:20:59.924Z,10.20
2022-11-28T17:23:27.482Z,10.20
2022-11-28T17:25:55.043Z,10.40
2022-11-28T17:28:27.791Z,10.40
2022-11-28T17:30:50.113Z,10.30
2022-11-28T17:33:18.623Z,10.10
2022-11-28T17:35:46.167Z,10.10
2022-11-28T17:38:13.714Z,10.10
2022-11-28T17:40:42.021Z,10.00
2022-11-28T17:43:15.506Z,10.00
2022-11-28T17:45:43.088Z,10.00
2022-11-28T17:48:11.364Z,9.90
2022-11-28T17:50:38.907Z,9.90
2022-11-28T17:53:06.452Z,9.90
2022-11-28T17:55:33.998Z,9.80
2022-11-28T17:58:02.301Z,10.00
2022-11-28T18:00:29.826Z,10.00
2022-11-28T18:02:58.184Z,9.90
2022-11-28T18:05:25.673Z,9.90
2022-11-28T18:07:53.239Z,9.90
2022-11-28T18:10:20.763Z,9.90
2022-11-28T18:12:48.297Z,9.80
2022-11-28T18:15:15.841Z,10.00
2022-11-28T18:17:43.407Z,10.30
2022-11-28T18:20:11.059Z,10.50
2022-11-28T18:22:38.592Z,10.40
2022-11-28T18:25:06.284Z,10.30
2022-11-28T18:27:33.821Z,10.20
2022-11-28T18:30:01.355Z,10.10
2022-11-28T18:32:29.667Z,10.00
2022-11-28T18:34:57.222Z,10.00
2022-11-28T18:37:24.756Z,9.90
2022-11-28T18:39:53.078Z,9.90
2022-11-28T18:42:20.613Z,9.80
2022-11-28T18:44:48.158Z,9.80
2022-11-28T18:47:16.460Z,9.80
2022-11-28T18:49:44.521Z,9.80
2022-11-28T18:52:11.530Z,9.80
2022-11-28T18:54:39.853Z,9.80
2022-11-28T18:57:07.399Z,9.80
2022-11-28T18:59:34.931Z,9.80
2022-11-28T19:02:03.319Z,10.00
2022-11-28T19:04:30.798Z,10.00
2022-11-28T19:06:58.353Z,10.00
2022-11-28T19:09:25.887Z,9.90
2022-11-28T19:11:54.230Z,9.90
2022-11-28T19:14:21.765Z,9.80
2022-11-28T19:16:49.378Z,9.80
2022-11-28T19:19:16.885Z,9.70
2022-11-28T19:21:44.408Z,9.70
2022-11-28T19:24:11.935Z,9.60
2022-11-28T19:26:39.509Z,9.60
2022-11-28T19:29:07.801Z,9.80
2022-11-28T19:31:36.193Z,9.80
2022-11-28T19:34:06.365Z,9.70
2022-11-28T19:36:33.900Z,9.70
2022-11-28T19:39:01.435Z,9.70
2022-11-28T19:41:29.009Z,9.90
2022-11-28T19:43:56.565Z,9.90
2022-11-28T19:46:24.079Z,9.80
2022-11-28T19:48:52.431Z,9.80
2022-11-28T19:51:19.994Z,9.80
2022-11-28T19:53:47.519Z,9.80
2022-11-28T19:56:15.104Z,9.70
2022-11-28T19:58:42.629Z,9.70
2022-11-28T20:01:15.771Z,9.70
2022-11-28T20:03:43.301Z,9.70
2022-11-28T20:06:10.835Z,9.70
2022-11-28T20:08:38.350Z,9.70
2022-11-28T20:11:11.861Z,9.70
2022-11-28T20:13:40.146Z,9.70
2022-11-28T20:16:08.762Z,9.70
2022-11-28T20:18:39.429Z,9.70
2022-11-28T20:21:12.440Z,9.70
2022-11-28T20:23:49.869Z,9.60
2022-11-28T20:26:17.403Z,9.60
2022-11-28T20:28:44.930Z,9.70
2022-11-28T20:31:27.656Z,9.60
2022-11-28T20:33:55.111Z,9.60
2022-11-28T20:36:22.617Z,9.90
2022-11-28T20:38:50.230Z,9.90
2022-11-28T20:41:17.738Z,9.90
2022-11-28T20:43:45.279Z,9.90
2022-11-28T20:46:12.919Z,9.80
2022-11-28T20:48:40.408Z,9.80
2022-11-28T20:51:07.924Z,9.80
2022-11-28T20:53:35.487Z,9.80
2022-11-28T20:56:03.793Z,9.70
2022-11-28T20:58:31.326Z,9.70
2022-11-28T21:00:59.714Z,10.00
2022-11-28T21:03:27.223Z,9.90
2022-11-28T21:06:00.711Z,9.90
2022-11-28T21:08:22.380Z,10.10
2022-11-28T21:10:50.716Z,10.30
2022-11-28T21:13:18.226Z,10.30
2022-11-28T21:15:45.810Z,10.20
2022-11-28T21:18:13.355Z,10.10
2022-11-28T21:20:40.914Z,10.00
2022-11-28T21:23:08.504Z,10.00
2022-11-28T21:25:36.049Z,9.90
2022-11-28T21:28:03.602Z,10.10
2022-11-28T21:30:31.965Z,10.00
2022-11-28T21:32:59.510Z,10.00
2022-11-28T21:35:27.802Z,9.90
2022-11-28T21:37:56.146Z,9.90
2022-11-28T21:40:23.689Z,9.90
2022-11-28T21:42:51.262Z,9.90
2022-11-28T21:45:18.857Z,10.10
2022-11-28T21:47:46.393Z,10.00
2022-11-28T21:50:14.971Z,10.20
2022-11-28T21:52:42.546Z,10.20
2022-11-28T21:55:10.859Z,10.30
2022-11-28T21:57:38.421Z,10.20
2022-11-28T22:00:06.286Z,10.20
2022-11-28T22:02:33.839Z,10.00
2022-11-28T22:05:02.103Z,9.80
2022-11-28T22:07:29.741Z,9.80
2022-11-28T22:09:57.213Z,9.80
2022-11-28T22:12:25.522Z,9.70
2022-11-28T22:14:53.187Z,9.70
2022-11-28T22:17:20.718Z,9.60
2022-11-28T22:19:48.253Z,9.60
2022-11-28T22:22:16.566Z,9.60
2022-11-28T22:24:44.102Z,9.60
2022-11-28T22:27:11.655Z,9.50
2022-11-28T22:29:40.037Z,9.50
2022-11-28T22:32:07.594Z,9.50
2022-11-28T22:34:39.672Z,9.50
2022-11-28T22:37:03.378Z,9.50
2022-11-28T22:39:30.913Z,9.50
2022-11-28T22:41:58.438Z,9.50
2022-11-28T22:44:26.002Z,9.50
2022-11-28T22:46:54.285Z,9.50
2022-11-28T22:49:21.818Z,9.50
2022-11-28T22:51:49.365Z,9.50
2022-11-28T22:54:16.895Z,9.50
2022-11-28T22:56:44.476Z,9.50
2022-11-28T22:59:12.039Z,9.50
2022-11-28T23:01:39.628Z,9.50
2022-11-28T23:04:07.127Z,9.70
2022-11-28T23:06:34.711Z,10.00
2022-11-28T23:09:02.261Z,10.20
2022-11-28T23:11:29.802Z,10.10
2022-11-28T23:13:57.393Z,10.00
2022-11-28T23:16:25.043Z,9.90
2022-11-28T23:18:52.464Z,9.80
2022-11-28T23:21:20.020Z,9.80
2022-11-28T23:23:47.554Z,9.70
2022-11-28T23:26:15.087Z,9.70
2022-11-28T23:28:42.682Z,9.60
2022-11-28T23:31:11.000Z,9.80
2022-11-28T23:33:38.501Z,9.80
2022-11-28T23:36:20.861Z,9.70
2022-11-28T23:38:48.410Z,9.70
2022-11-28T23:41:15.943Z,9.60
2022-11-28T23:43:44.286Z,9.50
2022-11-28T23:46:11.870Z,9.50
2022-11-28T23:48:39.354Z,9.50
2022-11-28T23:51:06.911Z,9.70
2022-11-28T23:53:34.458Z,9.70
2022-11-28T23:56:02.759Z,9.60
2022-11-28T23:58:30.319Z,9.60
